Terminal Aerodrome Forecast
Issued by NWS

Home | Current Version | Previous Version | Text Only | Print | Product List | Glossary Off
Versions: 1 2 3 4 5 6 7 8 9 10 11 12 13 14 15 16 17 18 19 20 21 22

000
FTUS43 KGRB 202200 AAB
TAFAUW
TAF AMD
KAUW 202221Z 2022/2118 29015G25KT P6SM BKN025 OVC040
     FM210100 28012KT P6SM BKN040
     FM210500 27010KT P6SM BKN030 OVC070
     FM210800 27012KT P6SM -SN BKN015 OVC025
      TEMPO 2111/2114 4SM -SN BR OVC015
     FM211500 27016G25KT P6SM -RA BKN025 OVC050=

USA.gov is the U.S. government's official web portal to all federal, state and local government web resources and services.